sensor_id;sensor_type;location;lat;lon;timestamp;pressure;altitude;pressure_sealevel;temperature;humidity
70909;BME280;58554;52.006;5.926;2023-12-14T00:02:19;100057.72;;;5.23;88.38
70909;BME280;58554;52.006;5.926;2023-12-14T00:04:45;100063.78;;;5.24;88.39
70909;BME280;58554;52.006;5.926;2023-12-14T00:07:12;100076.97;;;5.22;88.31
70909;BME280;58554;52.006;5.926;2023-12-14T00:09:38;100070.94;;;5.20;88.36
70909;BME280;58554;52.006;5.926;2023-12-14T00:12:05;100075.41;;;5.18;88.46
70909;BME280;58554;52.006;5.926;2023-12-14T00:14:32;100092.84;;;5.19;88.75
70909;BME280;58554;52.006;5.926;2023-12-14T00:17:01;100100.56;;;5.22;88.62
70909;BME280;58554;52.006;5.926;2023-12-14T00:19:28;100096.38;;;5.18;88.51
70909;BME280;58554;52.006;5.926;2023-12-14T00:21:54;100096.53;;;5.15;88.45
70909;BME280;58554;52.006;5.926;2023-12-14T00:24:21;100102.81;;;5.11;88.51
70909;BME280;58554;52.006;5.926;2023-12-14T00:26:47;100114.31;;;5.08;88.71
70909;BME280;58554;52.006;5.926;2023-12-14T00:29:14;100110.13;;;5.04;88.43
70909;BME280;58554;52.006;5.926;2023-12-14T00:31:40;100115.53;;;5.00;88.64
70909;BME280;58554;52.006;5.926;2023-12-14T00:34:09;100119.09;;;4.99;88.55
70909;BME280;58554;52.006;5.926;2023-12-14T00:36:36;100129.63;;;4.97;88.86
70909;BME280;58554;52.006;5.926;2023-12-14T00:39:02;100143.72;;;4.95;88.81
70909;BME280;58554;52.006;5.926;2023-12-14T00:41:30;100138.56;;;4.92;88.50
70909;BME280;58554;52.006;5.926;2023-12-14T00:43:56;100147.53;;;4.87;88.58
70909;BME280;58554;52.006;5.926;2023-12-14T00:46:23;100151.19;;;4.83;88.65
70909;BME280;58554;52.006;5.926;2023-12-14T00:48:49;100155.56;;;4.83;88.68
70909;BME280;58554;52.006;5.926;2023-12-14T00:51:18;100159.94;;;4.82;88.72
70909;BME280;58554;52.006;5.926;2023-12-14T00:53:45;100168.75;;;4.81;88.86
70909;BME280;58554;52.006;5.926;2023-12-14T00:56:11;100166.19;;;4.80;88.72
70909;BME280;58554;52.006;5.926;2023-12-14T00:58:38;100163.56;;;4.80;88.74
70909;BME280;58554;52.006;5.926;2023-12-14T01:01:05;100169.78;;;4.77;88.68
70909;BME280;58554;52.006;5.926;2023-12-14T01:03:31;100187.97;;;4.80;88.86
70909;BME280;58554;52.006;5.926;2023-12-14T01:05:58;100186.16;;;4.82;88.54
70909;BME280;58554;52.006;5.926;2023-12-14T01:08:27;100192.13;;;4.86;88.96
70909;BME280;58554;52.006;5.926;2023-12-14T01:10:53;100194.69;;;4.87;88.21
70909;BME280;58554;52.006;5.926;2023-12-14T01:13:20;100184.31;;;4.84;88.44
70909;BME280;58554;52.006;5.926;2023-12-14T01:15:46;100192.22;;;4.83;88.17
70909;BME280;58554;52.006;5.926;2023-12-14T01:18:13;100207.00;;;4.85;88.38
70909;BME280;58554;52.006;5.926;2023-12-14T01:20:40;100206.13;;;4.85;88.33
70909;BME280;58554;52.006;5.926;2023-12-14T01:23:07;100200.09;;;4.83;88.15
70909;BME280;58554;52.006;5.926;2023-12-14T01:25:36;100207.09;;;4.82;87.92
70909;BME280;58554;52.006;5.926;2023-12-14T01:28:03;100208.09;;;4.80;87.92
70909;BME280;58554;52.006;5.926;2023-12-14T01:30:29;100215.09;;;4.79;88.00
70909;BME280;58554;52.006;5.926;2023-12-14T01:32:56;100216.78;;;4.80;88.39
70909;BME280;58554;52.006;5.926;2023-12-14T01:35:23;100225.38;;;4.84;88.00
70909;BME280;58554;52.006;5.926;2023-12-14T01:37:49;100232.31;;;4.85;88.09
70909;BME280;58554;52.006;5.926;2023-12-14T01:40:18;100247.97;;;4.86;87.96
70909;BME280;58554;52.006;5.926;2023-12-14T01:42:48;100244.63;;;4.83;87.92
70909;BME280;58554;52.006;5.926;2023-12-14T01:45:14;100242.00;;;4.83;87.98
70909;BME280;58554;52.006;5.926;2023-12-14T01:47:41;100257.72;;;4.83;87.76
70909;BME280;58554;52.006;5.926;2023-12-14T01:50:08;100258.50;;;4.85;87.66
70909;BME280;58554;52.006;5.926;2023-12-14T01:52:35;100270.75;;;4.84;87.87
70909;BME280;58554;52.006;5.926;2023-12-14T01:55:02;100270.75;;;4.84;87.87
70909;BME280;58554;52.006;5.926;2023-12-14T01:57:29;100267.25;;;4.85;87.75
70909;BME280;58554;52.006;5.926;2023-12-14T01:59:58;100273.38;;;4.84;87.90
70909;BME280;58554;52.006;5.926;2023-12-14T02:02:25;100272.59;;;4.82;87.87
70909;BME280;58554;52.006;5.926;2023-12-14T02:04:52;100276.94;;;4.83;87.66
70909;BME280;58554;52.006;5.926;2023-12-14T02:07:18;100277.03;;;4.80;88.04
70909;BME280;58554;52.006;5.926;2023-12-14T02:09:45;100284.09;;;4.78;87.76
70909;BME280;58554;52.006;5.926;2023-12-14T02:12:12;100282.34;;;4.79;87.87
70909;BME280;58554;52.006;5.926;2023-12-14T02:14:38;100288.25;;;4.84;87.87
70909;BME280;58554;52.006;5.926;2023-12-14T02:17:07;100288.97;;;4.87;87.72
70909;BME280;58554;52.006;5.926;2023-12-14T02:19:34;100294.88;;;4.93;87.62
70909;BME280;58554;52.006;5.926;2023-12-14T02:22:00;100299.94;;;4.97;87.37
70909;BME280;58554;52.006;5.926;2023-12-14T02:24:29;100308.47;;;5.02;87.60
70909;BME280;58554;52.006;5.926;2023-12-14T02:26:56;100314.38;;;5.07;87.45
70909;BME280;58554;52.006;5.926;2023-12-14T02:29:23;100311.69;;;5.09;87.20
70909;BME280;58554;52.006;5.926;2023-12-14T02:31:49;100319.56;;;5.09;87.25
70909;BME280;58554;52.006;5.926;2023-12-14T02:34:16;100324.75;;;5.11;87.01
70909;BME280;58554;52.006;5.926;2023-12-14T02:36:43;100336.97;;;5.10;86.85
70909;BME280;58554;52.006;5.926;2023-12-14T02:39:09;100339.59;;;5.10;86.86
70909;BME280;58554;52.006;5.926;2023-12-14T02:41:38;100338.69;;;5.11;86.71
70909;BME280;58554;52.006;5.926;2023-12-14T02:44:05;100339.59;;;5.10;86.83
70909;BME280;58554;52.006;5.926;2023-12-14T02:46:31;100337.84;;;5.11;86.54
70909;BME280;58554;52.006;5.926;2023-12-14T02:48:57;100336.06;;;5.11;86.61
70909;BME280;58554;52.006;5.926;2023-12-14T02:51:24;100352.59;;;5.13;86.61
70909;BME280;58554;52.006;5.926;2023-12-14T02:53:50;100354.34;;;5.13;86.58
70909;BME280;58554;52.006;5.926;2023-12-14T02:56:17;100357.81;;;5.13;86.38
70909;BME280;58554;52.006;5.926;2023-12-14T02:58:46;100368.31;;;5.13;86.44
70909;BME280;58554;52.006;5.926;2023-12-14T03:01:12;100361.22;;;5.15;86.39
70909;BME280;58554;52.006;5.926;2023-12-14T03:03:39;100368.09;;;5.18;86.59
70909;BME280;58554;52.006;5.926;2023-12-14T03:06:06;100378.53;;;5.19;86.27
70909;BME280;58554;52.006;5.926;2023-12-14T03:08:32;100383.03;;;5.16;86.29
70909;BME280;58554;52.006;5.926;2023-12-14T03:10:59;100383.88;;;5.16;86.21
70909;BME280;58554;52.006;5.926;2023-12-14T03:13:25;100387.44;;;5.15;86.36
70909;BME280;58554;52.006;5.926;2023-12-14T03:15:54;100393.53;;;5.16;86.22
70909;BME280;58554;52.006;5.926;2023-12-14T03:18:21;100396.19;;;5.14;86.21
70909;BME280;58554;52.006;5.926;2023-12-14T03:20:47;100397.13;;;5.13;85.91
70909;BME280;58554;52.006;5.926;2023-12-14T03:23:14;100396.44;;;5.08;86.16
70909;BME280;58554;52.006;5.926;2023-12-14T03:25:40;100402.81;;;5.02;86.09
70909;BME280;58554;52.006;5.926;2023-12-14T03:28:07;100404.84;;;4.94;86.20
70909;BME280;58554;52.006;5.926;2023-12-14T03:30:33;100411.19;;;4.88;86.17
70909;BME280;58554;52.006;5.926;2023-12-14T03:33:02;100406.00;;;4.87;86.32
70909;BME280;58554;52.006;5.926;2023-12-14T03:35:29;100408.69;;;4.85;86.67
70909;BME280;58554;52.006;5.926;2023-12-14T03:37:55;100402.72;;;4.82;86.27
70909;BME280;58554;52.006;5.926;2023-12-14T03:40:22;100401.06;;;4.79;86.45
70909;BME280;58554;52.006;5.926;2023-12-14T03:42:48;100399.53;;;4.74;86.22
70909;BME280;58554;52.006;5.926;2023-12-14T03:45:15;100409.31;;;4.68;86.35
70909;BME280;58554;52.006;5.926;2023-12-14T03:47:41;100408.47;;;4.68;86.54
70909;BME280;58554;52.006;5.926;2023-12-14T03:50:11;100412.13;;;4.64;86.66
70909;BME280;58554;52.006;5.926;2023-12-14T03:52:38;100417.50;;;4.61;86.61
70909;BME280;58554;52.006;5.926;2023-12-14T03:55:05;100417.59;;;4.58;86.57
70909;BME280;58554;52.006;5.926;2023-12-14T03:57:33;100423.75;;;4.57;86.57
70909;BME280;58554;52.006;5.926;2023-12-14T03:59:59;100429.91;;;4.56;86.54
70909;BME280;58554;52.006;5.926;2023-12-14T04:02:25;100433.53;;;4.52;86.54
70909;BME280;58554;52.006;5.926;2023-12-14T04:04:52;100426.63;;;4.51;86.46
70909;BME280;58554;52.006;5.926;2023-12-14T04:07:21;100427.47;;;4.51;86.59
70909;BME280;58554;52.006;5.926;2023-12-14T04:09:47;100431.91;;;4.49;86.63
70909;BME280;58554;52.006;5.926;2023-12-14T04:12:14;100438.91;;;4.48;86.73
70909;BME280;58554;52.006;5.926;2023-12-14T04:14:40;100438.91;;;4.48;86.62
70909;BME280;58554;52.006;5.926;2023-12-14T04:17:07;100442.31;;;4.51;86.78
70909;BME280;58554;52.006;5.926;2023-12-14T04:19:33;100444.94;;;4.51;86.71
70909;BME280;58554;52.006;5.926;2023-12-14T04:22:00;100442.41;;;4.47;86.86
70909;BME280;58554;52.006;5.926;2023-12-14T04:24:29;100442.41;;;4.47;86.71
70909;BME280;58554;52.006;5.926;2023-12-14T04:26:55;100445.97;;;4.46;86.89
70909;BME280;58554;52.006;5.926;2023-12-14T04:29:22;100446.00;;;4.45;86.61
70909;BME280;58554;52.006;5.926;2023-12-14T04:31:48;100448.69;;;4.43;86.69
70909;BME280;58554;52.006;5.926;2023-12-14T04:34:15;100457.34;;;4.45;87.04
70909;BME280;58554;52.006;5.926;2023-12-14T04:36:41;100460.81;;;4.46;86.96
70909;BME280;58554;52.006;5.926;2023-12-14T04:39:08;100465.28;;;4.44;86.78
70909;BME280;58554;52.006;5.926;2023-12-14T04:41:37;100476.69;;;4.41;86.63
70909;BME280;58554;52.006;5.926;2023-12-14T04:44:04;100483.81;;;4.38;86.69
70909;BME280;58554;52.006;5.926;2023-12-14T04:46:30;100486.47;;;4.36;86.67
70909;BME280;58554;52.006;5.926;2023-12-14T04:48:56;100494.34;;;4.36;86.86
70909;BME280;58554;52.006;5.926;2023-12-14T04:51:23;100512.53;;;4.39;86.63
70909;BME280;58554;52.006;5.926;2023-12-14T04:53:49;100510.00;;;4.38;86.87
70909;BME280;58554;52.006;5.926;2023-12-14T04:56:16;100510.88;;;4.37;86.65
70909;BME280;58554;52.006;5.926;2023-12-14T04:58:45;100514.44;;;4.36;86.88
70909;BME280;58554;52.006;5.926;2023-12-14T05:01:11;100525.75;;;4.36;86.88
70909;BME280;58554;52.006;5.926;2023-12-14T05:03:38;100525.78;;;4.35;86.69
70909;BME280;58554;52.006;5.926;2023-12-14T05:06:05;100530.13;;;4.36;86.74
70909;BME280;58554;52.006;5.926;2023-12-14T05:08:32;100530.13;;;4.36;86.89
70909;BME280;58554;52.006;5.926;2023-12-14T05:10:58;100538.78;;;4.38;86.86
70909;BME280;58554;52.006;5.926;2023-12-14T05:13:25;100547.53;;;4.37;86.90
70909;BME280;58554;52.006;5.926;2023-12-14T05:15:54;100553.63;;;4.37;86.80
70909;BME280;58554;52.006;5.926;2023-12-14T05:18:20;100558.94;;;4.36;86.96
70909;BME280;58554;52.006;5.926;2023-12-14T05:20:47;100564.16;;;4.36;86.89
70909;BME280;58554;52.006;5.926;2023-12-14T05:23:13;100567.66;;;4.35;86.85
70909;BME280;58554;52.006;5.926;2023-12-14T05:25:40;100569.41;;;4.36;86.70
70909;BME280;58554;52.006;5.926;2023-12-14T05:28:06;100574.56;;;4.37;86.64
70909;BME280;58554;52.006;5.926;2023-12-14T05:30:33;100576.38;;;4.35;86.55
70909;BME280;58554;52.006;5.926;2023-12-14T05:33:02;100582.53;;;4.34;86.80
70909;BME280;58554;52.006;5.926;2023-12-14T05:35:28;100582.53;;;4.34;86.59
70909;BME280;58554;52.006;5.926;2023-12-14T05:37:55;100581.59;;;4.35;87.01
70909;BME280;58554;52.006;5.926;2023-12-14T05:40:21;100586.84;;;4.35;86.83
70909;BME280;58554;52.006;5.926;2023-12-14T05:42:48;100596.41;;;4.36;86.63
70909;BME280;58554;52.006;5.926;2023-12-14T05:45:14;100600.72;;;4.37;86.95
70909;BME280;58554;52.006;5.926;2023-12-14T05:47:41;100610.31;;;4.38;86.82
70909;BME280;58554;52.006;5.926;2023-12-14T05:50:10;100622.56;;;4.38;86.89
70909;BME280;58554;52.006;5.926;2023-12-14T05:52:37;100631.25;;;4.38;86.87
70909;BME280;58554;52.006;5.926;2023-12-14T05:55:04;100629.53;;;4.37;86.85
70909;BME280;58554;52.006;5.926;2023-12-14T05:57:33;100652.19;;;4.38;86.81
70909;BME280;58554;52.006;5.926;2023-12-14T05:59:59;100650.47;;;4.37;86.83
70909;BME280;58554;52.006;5.926;2023-12-14T06:02:26;100653.09;;;4.37;86.88
70909;BME280;58554;52.006;5.926;2023-12-14T06:04:52;100659.25;;;4.36;86.67
70909;BME280;58554;52.006;5.926;2023-12-14T06:07:21;100668.00;;;4.35;86.68
70909;BME280;58554;52.006;5.926;2023-12-14T06:09:49;100661.91;;;4.35;86.80
70909;BME280;58554;52.006;5.926;2023-12-14T06:12:16;100670.59;;;4.35;86.57
70909;BME280;58554;52.006;5.926;2023-12-14T06:14:42;100673.94;;;4.40;86.78
70909;BME280;58554;52.006;5.926;2023-12-14T06:17:08;100665.88;;;4.46;86.89
70909;BME280;58554;52.006;5.926;2023-12-14T06:19:35;100674.38;;;4.53;86.78
70909;BME280;58554;52.006;5.926;2023-12-14T06:22:01;100671.72;;;4.55;86.34
70909;BME280;58554;52.006;5.926;2023-12-14T06:24:31;100684.69;;;4.58;86.35
70909;BME280;58554;52.006;5.926;2023-12-14T06:26:57;100681.91;;;4.62;86.25
70909;BME280;58554;52.006;5.926;2023-12-14T06:29:24;100685.34;;;4.64;86.39
70909;BME280;58554;52.006;5.926;2023-12-14T06:31:50;100698.31;;;4.69;86.12
70909;BME280;58554;52.006;5.926;2023-12-14T06:34:16;100700.81;;;4.72;85.87
70909;BME280;58554;52.006;5.926;2023-12-14T06:36:43;100709.41;;;4.76;85.90
70909;BME280;58554;52.006;5.926;2023-12-14T06:39:11;100708.50;;;4.77;85.88
70909;BME280;58554;52.006;5.926;2023-12-14T06:41:42;100716.31;;;4.78;85.96
70909;BME280;58554;52.006;5.926;2023-12-14T06:44:08;100717.13;;;4.80;85.58
70909;BME280;58554;52.006;5.926;2023-12-14T06:46:34;100722.28;;;4.83;85.41
70909;BME280;58554;52.006;5.926;2023-12-14T06:49:01;100722.16;;;4.86;85.39
70909;BME280;58554;52.006;5.926;2023-12-14T06:51:28;100735.25;;;4.86;85.04
70909;BME280;58554;52.006;5.926;2023-12-14T06:53:54;100732.94;;;4.77;84.76
70909;BME280;58554;52.006;5.926;2023-12-14T06:56:20;100737.53;;;4.71;84.87
70909;BME280;58554;52.006;5.926;2023-12-14T06:58:49;100737.69;;;4.66;84.81
70909;BME280;58554;52.006;5.926;2023-12-14T07:01:16;100737.91;;;4.58;84.75
70909;BME280;58554;52.006;5.926;2023-12-14T07:03:44;100745.91;;;4.55;84.87
70909;BME280;58554;52.006;5.926;2023-12-14T07:06:12;100746.91;;;4.51;84.97
70909;BME280;58554;52.006;5.926;2023-12-14T07:08:39;100751.44;;;4.46;84.61
70909;BME280;58554;52.006;5.926;2023-12-14T07:11:07;100755.09;;;4.40;84.59
70909;BME280;58554;52.006;5.926;2023-12-14T07:13:34;100763.13;;;4.36;84.60
70909;BME280;58554;52.006;5.926;2023-12-14T07:16:05;100767.47;;;4.35;84.60
70909;BME280;58554;52.006;5.926;2023-12-14T07:18:33;100773.78;;;4.30;84.45
70909;BME280;58554;52.006;5.926;2023-12-14T07:21:00;100792.13;;;4.28;84.41
70909;BME280;58554;52.006;5.926;2023-12-14T07:23:26;100800.00;;;4.28;84.69
70909;BME280;58554;52.006;5.926;2023-12-14T07:25:53;100792.19;;;4.26;84.75
70909;BME280;58554;52.006;5.926;2023-12-14T07:28:19;100797.47;;;4.25;84.56
70909;BME280;58554;52.006;5.926;2023-12-14T07:30:46;100794.09;;;4.21;84.59
70909;BME280;58554;52.006;5.926;2023-12-14T07:33:15;100801.97;;;4.20;84.83
70909;BME280;58554;52.006;5.926;2023-12-14T07:35:42;100793.28;;;4.19;84.76
70909;BME280;58554;52.006;5.926;2023-12-14T07:38:09;100807.31;;;4.17;84.80
70909;BME280;58554;52.006;5.926;2023-12-14T07:40:36;100812.63;;;4.14;85.06
70909;BME280;58554;52.006;5.926;2023-12-14T07:43:03;100816.91;;;4.16;85.17
70909;BME280;58554;52.006;5.926;2023-12-14T07:45:30;100817.59;;;4.23;84.92
70909;BME280;58554;52.006;5.926;2023-12-14T07:47:56;100826.13;;;4.30;84.94
70909;BME280;58554;52.006;5.926;2023-12-14T07:50:25;100823.25;;;4.37;84.76
70909;BME280;58554;52.006;5.926;2023-12-14T07:52:53;100824.03;;;4.41;84.72
70909;BME280;58554;52.006;5.926;2023-12-14T07:55:20;100830.84;;;4.46;84.43
70909;BME280;58554;52.006;5.926;2023-12-14T07:57:47;100834.28;;;4.48;84.23
70909;BME280;58554;52.006;5.926;2023-12-14T08:00:15;100842.81;;;4.54;84.05
70909;BME280;58554;52.006;5.926;2023-12-14T08:02:42;100861.16;;;4.54;84.06
70909;BME280;58554;52.006;5.926;2023-12-14T08:05:09;100855.22;;;4.48;84.05
70909;BME280;58554;52.006;5.926;2023-12-14T08:07:38;100862.41;;;4.42;83.84
70909;BME280;58554;52.006;5.926;2023-12-14T08:10:06;100864.31;;;4.35;83.64
70909;BME280;58554;52.006;5.926;2023-12-14T08:12:33;100873.09;;;4.34;83.86
70909;BME280;58554;52.006;5.926;2023-12-14T08:15:00;100881.94;;;4.30;83.63
70909;BME280;58554;52.006;5.926;2023-12-14T08:17:26;100881.25;;;4.25;83.55
70909;BME280;58554;52.006;5.926;2023-12-14T08:19:52;100879.53;;;4.22;83.72
70909;BME280;58554;52.006;5.926;2023-12-14T08:22:19;100886.59;;;4.20;84.00
70909;BME280;58554;52.006;5.926;2023-12-14T08:24:48;100890.00;;;4.22;84.16
70909;BME280;58554;52.006;5.926;2023-12-14T08:27:14;100892.69;;;4.21;83.98
70909;BME280;58554;52.006;5.926;2023-12-14T08:29:41;100897.00;;;4.22;84.21
70909;BME280;58554;52.006;5.926;2023-12-14T08:32:07;100910.06;;;4.23;83.95
70909;BME280;58554;52.006;5.926;2023-12-14T08:34:34;100918.81;;;4.22;84.13
70909;BME280;58554;52.006;5.926;2023-12-14T08:37:00;100911.75;;;4.24;84.09
70909;BME280;58554;52.006;5.926;2023-12-14T08:39:27;100915.25;;;4.25;83.95
70909;BME280;58554;52.006;5.926;2023-12-14T08:41:56;100916.16;;;4.24;83.74
70909;BME280;58554;52.006;5.926;2023-12-14T08:44:23;100927.53;;;4.23;83.83
70909;BME280;58554;52.006;5.926;2023-12-14T08:46:50;100931.03;;;4.22;83.90
70909;BME280;58554;52.006;5.926;2023-12-14T08:49:16;100935.47;;;4.20;83.52
70909;BME280;58554;52.006;5.926;2023-12-14T08:51:43;100939.84;;;4.19;84.02
70909;BME280;58554;52.006;5.926;2023-12-14T08:54:09;100946.78;;;4.20;83.75
70909;BME280;58554;52.006;5.926;2023-12-14T08:56:36;100939.03;;;4.17;83.53
70909;BME280;58554;52.006;5.926;2023-12-14T08:59:05;100949.50;;;4.17;83.63
70909;BME280;58554;52.006;5.926;2023-12-14T09:01:31;100947.72;;;4.18;83.65
70909;BME280;58554;52.006;5.926;2023-12-14T09:03:58;100948.56;;;4.18;83.67
70909;BME280;58554;52.006;5.926;2023-12-14T09:06:24;100951.16;;;4.20;83.83
70909;BME280;58554;52.006;5.926;2023-12-14T09:08:50;100951.16;;;4.20;83.58
70909;BME280;58554;52.006;5.926;2023-12-14T09:11:17;100963.38;;;4.21;83.89
70909;BME280;58554;52.006;5.926;2023-12-14T09:13:43;100966.72;;;4.24;83.78
70909;BME280;58554;52.006;5.926;2023-12-14T09:16:12;100963.31;;;4.22;83.44
70909;BME280;58554;52.006;5.926;2023-12-14T09:18:39;100962.41;;;4.23;83.67
70909;BME280;58554;52.006;5.926;2023-12-14T09:21:06;100975.53;;;4.22;83.37
70909;BME280;58554;52.006;5.926;2023-12-14T09:23:32;100976.44;;;4.21;83.42
70909;BME280;58554;52.006;5.926;2023-12-14T09:25:59;100971.22;;;4.21;83.96
70909;BME280;58554;52.006;5.926;2023-12-14T09:28:25;100982.41;;;4.26;84.41
70909;BME280;58554;52.006;5.926;2023-12-14T09:30:52;100982.38;;;4.27;83.99
70909;BME280;58554;52.006;5.926;2023-12-14T09:33:21;100992.69;;;4.32;83.92
70909;BME280;58554;52.006;5.926;2023-12-14T09:35:47;100995.31;;;4.32;83.45
70909;BME280;58554;52.006;5.926;2023-12-14T09:38:14;100993.66;;;4.30;83.80
70909;BME280;58554;52.006;5.926;2023-12-14T09:40:42;100994.50;;;4.30;83.65
70909;BME280;58554;52.006;5.926;2023-12-14T09:43:09;101003.19;;;4.32;83.82
70909;BME280;58554;52.006;5.926;2023-12-14T09:45:37;101001.38;;;4.34;83.66
70909;BME280;58554;52.006;5.926;2023-12-14T09:48:06;101016.16;;;4.35;83.73
70909;BME280;58554;52.006;5.926;2023-12-14T09:50:39;101014.44;;;4.36;83.98
70909;BME280;58554;52.006;5.926;2023-12-14T09:53:06;101021.41;;;4.35;83.91
70909;BME280;58554;52.006;5.926;2023-12-14T09:55:32;101023.94;;;4.38;83.64
70909;BME280;58554;52.006;5.926;2023-12-14T09:57:59;101026.56;;;4.38;83.82
70909;BME280;58554;52.006;5.926;2023-12-14T10:00:36;101029.16;;;4.40;83.95
70909;BME280;58554;52.006;5.926;2023-12-14T10:03:20;101040.38;;;4.43;83.76
70909;BME280;58554;52.006;5.926;2023-12-14T10:05:50;101040.38;;;4.43;83.76
70909;BME280;58554;52.006;5.926;2023-12-14T10:08:18;101042.13;;;4.44;83.61
70909;BME280;58554;52.006;5.926;2023-12-14T10:10:46;101040.38;;;4.43;83.59
70909;BME280;58554;52.006;5.926;2023-12-14T10:13:14;101050.84;;;4.43;83.77
70909;BME280;58554;52.006;5.926;2023-12-14T10:15:42;101057.84;;;4.43;83.73
70909;BME280;58554;52.006;5.926;2023-12-14T10:18:09;101065.69;;;4.44;83.60
70909;BME280;58554;52.006;5.926;2023-12-14T10:20:36;101067.38;;;4.45;83.76
70909;BME280;58554;52.006;5.926;2023-12-14T10:23:06;101080.44;;;4.47;83.74
70909;BME280;58554;52.006;5.926;2023-12-14T10:25:35;101072.38;;;4.55;83.77
70909;BME280;58554;52.006;5.926;2023-12-14T10:28:02;101078.22;;;4.64;83.79
70909;BME280;58554;52.006;5.926;2023-12-14T10:30:29;101071.91;;;4.72;83.55
70909;BME280;58554;52.006;5.926;2023-12-14T10:32:56;101066.41;;;4.81;83.47
70909;BME280;58554;52.006;5.926;2023-12-14T10:35:23;101068.84;;;4.87;83.28
70909;BME280;58554;52.006;5.926;2023-12-14T10:37:51;101074.75;;;4.94;83.37
70909;BME280;58554;52.006;5.926;2023-12-14T10:40:20;101082.47;;;5.00;83.19
70909;BME280;58554;52.006;5.926;2023-12-14T10:42:51;101084.09;;;5.04;83.30
70909;BME280;58554;52.006;5.926;2023-12-14T10:45:25;101090.97;;;5.08;83.24
70909;BME280;58554;52.006;5.926;2023-12-14T10:47:59;101100.41;;;5.15;83.21
70909;BME280;58554;52.006;5.926;2023-12-14T10:50:30;101094.22;;;5.16;83.06
70909;BME280;58554;52.006;5.926;2023-12-14T10:52:58;101098.47;;;5.20;82.82
70909;BME280;58554;52.006;5.926;2023-12-14T10:55:33;101100.13;;;5.24;82.82
70909;BME280;58554;52.006;5.926;2023-12-14T10:58:04;101097.41;;;5.27;82.61
70909;BME280;58554;52.006;5.926;2023-12-14T11:00:37;101095.53;;;5.31;82.68
70909;BME280;58554;52.006;5.926;2023-12-14T11:03:04;101097.16;;;5.35;82.68
70909;BME280;58554;52.006;5.926;2023-12-14T11:05:33;101090.91;;;5.39;82.52
70909;BME280;58554;52.006;5.926;2023-12-14T11:08:05;101094.31;;;5.43;82.56
70909;BME280;58554;52.006;5.926;2023-12-14T11:10:40;101088.03;;;5.48;82.32
70909;BME280;58554;52.006;5.926;2023-12-14T11:13:10;101094.13;;;5.49;81.98
70909;BME280;58554;52.006;5.926;2023-12-14T11:15:39;101102.97;;;5.46;81.86
70909;BME280;58554;52.006;5.926;2023-12-14T11:18:27;101103.81;;;5.47;82.09
70909;BME280;58554;52.006;5.926;2023-12-14T11:20:55;101119.53;;;5.47;81.98
70909;BME280;58554;52.006;5.926;2023-12-14T11:23:29;101131.81;;;5.46;82.05
70909;BME280;58554;52.006;5.926;2023-12-14T11:26:03;101131.84;;;5.45;81.75
70909;BME280;58554;52.006;5.926;2023-12-14T11:28:33;101130.16;;;5.44;82.00
70909;BME280;58554;52.006;5.926;2023-12-14T11:31:03;101121.34;;;5.45;81.80
70909;BME280;58554;52.006;5.926;2023-12-14T11:33:32;101124.81;;;5.45;82.00
70909;BME280;58554;52.006;5.926;2023-12-14T11:36:01;101131.03;;;5.43;81.75
70909;BME280;58554;52.006;5.926;2023-12-14T11:38:28;101129.41;;;5.39;82.00
70909;BME280;58554;52.006;5.926;2023-12-14T11:40:55;101136.56;;;5.34;81.93
70909;BME280;58554;52.006;5.926;2023-12-14T11:43:24;101142.84;;;5.28;81.75
70909;BME280;58554;52.006;5.926;2023-12-14T11:45:52;101147.38;;;5.23;81.90
70909;BME280;58554;52.006;5.926;2023-12-14T11:48:20;101146.59;;;5.19;82.18
70909;BME280;58554;52.006;5.926;2023-12-14T11:50:47;101146.63;;;5.18;81.92
70909;BME280;58554;52.006;5.926;2023-12-14T11:53:14;101150.25;;;5.14;82.11
70909;BME280;58554;52.006;5.926;2023-12-14T11:55:41;101153.81;;;5.11;82.09
70909;BME280;58554;52.006;5.926;2023-12-14T11:58:11;101153.00;;;5.09;82.35
70909;BME280;58554;52.006;5.926;2023-12-14T12:00:42;101158.25;;;5.09;82.37
70909;BME280;58554;52.006;5.926;2023-12-14T12:03:10;101159.09;;;5.10;82.31
70909;BME280;58554;52.006;5.926;2023-12-14T12:05:39;101159.19;;;5.06;82.03
70909;BME280;58554;52.006;5.926;2023-12-14T12:08:08;101149.56;;;5.07;82.30
70909;BME280;58554;52.006;5.926;2023-12-14T12:10:36;101152.16;;;5.08;82.12
70909;BME280;58554;52.006;5.926;2023-12-14T12:13:05;101133.72;;;5.10;82.08
70909;BME280;58554;52.006;5.926;2023-12-14T12:15:34;101143.19;;;5.16;82.16
70909;BME280;58554;52.006;5.926;2023-12-14T12:18:05;101146.56;;;5.21;82.00
70909;BME280;58554;52.006;5.926;2023-12-14T12:20:34;101147.38;;;5.23;81.49
70909;BME280;58554;52.006;5.926;2023-12-14T12:23:01;101147.28;;;5.26;81.92
70909;BME280;58554;52.006;5.926;2023-12-14T12:25:29;101146.34;;;5.27;81.46
70909;BME280;58554;52.006;5.926;2023-12-14T12:27:55;101154.19;;;5.28;81.23
70909;BME280;58554;52.006;5.926;2023-12-14T12:30:22;101163.88;;;5.25;80.84
70909;BME280;58554;52.006;5.926;2023-12-14T12:32:49;101164.00;;;5.22;80.95
70909;BME280;58554;52.006;5.926;2023-12-14T12:35:19;101164.94;;;5.19;80.98
70909;BME280;58554;52.006;5.926;2023-12-14T12:37:46;101155.31;;;5.20;81.01
70909;BME280;58554;52.006;5.926;2023-12-14T12:40:13;101156.97;;;5.22;81.03
70909;BME280;58554;52.006;5.926;2023-12-14T12:42:39;101154.28;;;5.25;80.99
70909;BME280;58554;52.006;5.926;2023-12-14T12:45:06;101164.59;;;5.32;80.92
70909;BME280;58554;52.006;5.926;2023-12-14T12:47:34;101166.16;;;5.37;80.77
70909;BME280;58554;52.006;5.926;2023-12-14T12:50:00;101171.28;;;5.42;80.74
70909;BME280;58554;52.006;5.926;2023-12-14T12:52:29;101172.91;;;5.46;80.48
70909;BME280;58554;52.006;5.926;2023-12-14T12:54:56;101174.66;;;5.45;80.47
70909;BME280;58554;52.006;5.926;2023-12-14T12:57:22;101177.38;;;5.42;80.29
70909;BME280;58554;52.006;5.926;2023-12-14T12:59:49;101183.47;;;5.43;80.08
70909;BME280;58554;52.006;5.926;2023-12-14T13:02:16;101183.53;;;5.41;80.40